Aeroporto :
LOGIN :

Iscrizione | Disclaimer

   EN    FR    IT 

 










Sommario :    VFR   VFR Marginale   IFR   IFR Intensivo   IFR Molto Intensivo
Visibilità : 
Base nubi : 
>= 8 km
>= 3000ft
5 / 8 km
1000 / 3000 ft
1500m / 5 km
500 / 1000 ft
800 / 1500m
200 / 500 ft
< 800m
< 200 ft
Simboli :   Temporali  Nebbia  Neve Forte  Precipitazioni Forti  Vento > 20 kt
SIGMETs :   Varie  Temporali  Ghiacco  Turbolenza  Onda orograficha  Ceneri Vulcaniche






- Altitudine del aeroporto : 146 ft
- Codice IATA : RKE


EKRK - Roskilde Tune

ULTIMO METAR :
  • 202350Z AUTO 31019G40KT 230V330 9999 -RA OVC010/// 05/03 Q0998

METARs OBSOLETI :
  • 202320Z AUTO 21017KT 9999 -RA OVC011/// 06/05 Q0997 RERA
  • 202250Z AUTO 20017KT 9999 RA OVC014/// 06/05 Q0997
  • 202220Z AUTO 20016KT 180V260 9999 -RA OVC013/// 06/05 Q0998
  • 202150Z AUTO 19017KT 9999 -RA OVC011/// 06/05 Q0998
  • 202120Z AUTO 19015KT 7000 -RA OVC011/// 06/05 Q0999

TAF AMD TAF EKRK
Valido dal 21 a 00 ore il 21 a 09 ore UTC


202356Z 2100/2109 31020G40KT 7000 RA BKN010
BECMG 2100/2101 28015KT NSW SCT020
TEMPO 2101/2106 SHRA SCT020CB



MetMap, La meteo Aeronautica in un colpo d'occhio ! - Copyright ORBIFLY Dicembre 2007 - Disclaimer

ORBIFLY MET'MAP TEAM :

Programmazione e sviluppo : Alexandra Zaïnal
Concezione : Baudouin d'Aumeries
Aiuto per la programmazione : Marc-Olivier Méhu
Supporto tecnico e logistico : Manuel Goepfert
Aiuto per la traduzione : Arnaldo La Scala

Contatto : metmap@orbifly.com




FONTI E CREDITI :

   NOAA